Time;durP1;ratioP1;P1;durP2;ratioP2;P2;SDS_P1;SDS_P2;PMS_P1;PMS_P2;Temp;Humidity;BMP_temperature;BMP_pressure;BME280_temperature;BME280_humidity;BME280_pressure;Samples;Min_cycle;Max_cycle;Signal;HPM_P1;HPM_P2
2020/12/03 00:00:44;;;;;;;23.75;13.95;;;6.50;93.10;;;6.47;78.44;99878.28;5047075;28;20442;-86
2020/12/03 00:03:18;;;;;;;23.30;14.15;;;6.50;93.20;;;6.46;78.25;99873.94;5047382;28;20048;-88
2020/12/03 00:05:58;;;;;;;24.15;13.95;;;6.50;93.40;;;6.52;78.31;99870.53;5070728;28;20048;-86
2020/12/03 00:08:25;;;;;;;26.60;15.35;;;6.50;93.60;;;6.54;78.12;99867.66;5071317;28;20037;-87
2020/12/03 00:10:52;;;;;;;24.23;14.75;;;6.50;93.60;;;6.49;78.58;99868.16;5069239;28;20494;-87
2020/12/03 00:13:23;;;;;;;25.95;15.00;;;6.50;93.60;;;6.48;78.92;99860.25;5070993;28;20051;-87
2020/12/03 00:15:56;;;;;;;26.02;15.85;;;6.50;93.70;;;6.46;78.21;99857.72;5070979;28;20446;-87
2020/12/03 00:18:24;;;;;;;26.60;15.85;;;6.50;93.70;;;6.46;78.61;99849.59;5067723;28;20485;-87
2020/12/03 00:20:54;;;;;;;25.13;14.48;;;6.50;93.70;;;6.48;78.74;99852.97;5068194;28;20453;-86
2020/12/03 00:23:21;;;;;;;28.20;15.30;;;6.50;93.90;;;6.45;78.48;99846.06;5070338;28;20048;-87
2020/12/03 00:25:50;;;;;;;29.98;16.67;;;6.50;93.70;;;6.47;79.03;99835.03;5070495;28;20048;-87
2020/12/03 00:28:18;;;;;;;28.20;15.32;;;6.50;93.60;;;6.50;78.31;99836.59;5069194;28;20044;-87
2020/12/03 00:30:46;;;;;;;27.67;16.50;;;6.60;93.60;;;6.51;78.62;99833.72;5069041;28;20673;-87
2020/12/03 00:33:17;;;;;;;29.63;16.63;;;6.60;93.50;;;6.49;78.70;99827.59;5071136;28;20079;-87
2020/12/03 00:35:44;;;;;;;;;;;6.50;93.40;;;6.49;78.66;99824.91;5069932;28;20052;-86
2020/12/03 00:38:10;;;;;;;29.35;16.20;;;6.60;93.60;;;6.46;79.03;99836.09;5071478;28;20381;-88
2020/12/03 00:40:37;;;;;;;29.58;16.25;;;6.50;93.80;;;6.49;79.29;99822.19;5068994;28;20048;-87
2020/12/03 00:43:04;;;;;;;30.80;16.92;;;6.60;93.90;;;6.49;78.74;99814.09;5071070;28;20286;-86
2020/12/03 00:45:32;;;;;;;27.88;16.70;;;6.50;94.10;;;6.49;78.98;99811.38;5068907;28;20074;-87
2020/12/03 00:47:59;;;;;;;27.85;15.98;;;6.60;93.80;;;6.53;79.00;99806.47;5069953;28;20114;-87
2020/12/03 00:50:26;;;;;;;28.83;16.65;;;6.60;93.80;;;6.53;78.48;99806.47;5068571;28;20056;-86
2020/12/03 00:52:53;;;;;;;29.15;16.38;;;6.50;93.50;;;6.46;79.04;99799.06;5069118;28;20044;-87
2020/12/03 00:55:20;;;;;;;30.95;16.90;;;6.60;93.40;;;6.44;78.53;99795.72;5068879;28;20429;-86
2020/12/03 00:57:47;;;;;;;27.73;15.43;;;6.60;93.40;;;6.49;78.92;99792.47;5068448;28;20051;-87
2020/12/03 01:00:19;;;;;;;27.70;16.02;;;6.50;93.60;;;6.50;78.58;99794.16;5068766;28;20499;-86
2020/12/03 01:02:48;;;;;;;27.42;15.55;;;6.50;93.30;;;6.51;78.22;99790.47;5070703;28;20048;-87
2020/12/03 01:05:16;;;;;;;28.90;14.98;;;6.60;93.40;;;6.45;78.54;99781.19;5053573;28;20045;-87
2020/12/03 01:07:43;;;;;;;29.75;17.13;;;6.60;93.40;;;6.47;78.93;99778.28;5048532;28;20068;-87
2020/12/03 01:10:17;;;;;;;28.45;16.23;;;6.60;93.20;;;6.49;78.68;99770.00;5049861;28;20045;-87
2020/12/03 01:12:44;;;;;;;30.23;16.38;;;6.60;93.00;;;6.47;78.86;99770.19;5050063;28;20044;-86
2020/12/03 01:15:11;;;;;;;30.73;15.73;;;6.60;93.10;;;6.50;78.33;99774.41;5049858;28;20128;-87
2020/12/03 01:17:38;;;;;;;27.00;15.07;;;6.60;93.00;;;6.48;78.50;99763.75;5048072;28;20445;-87
2020/12/03 01:20:09;;;;;;;26.80;15.75;;;6.60;92.90;;;6.41;78.65;99770.88;5049846;28;20123;-87
2020/12/03 01:25:19;;;;;;;27.65;15.43;;;6.60;93.00;;;6.49;78.33;99765.44;5128483;22;20054;-82
2020/12/03 01:27:46;;;;;;;29.30;16.77;;;6.60;93.10;;;6.50;78.79;99756.31;5009378;28;20054;-82
2020/12/03 01:30:14;;;;;;;29.17;16.45;;;6.60;93.00;;;6.52;77.94;99758.84;4983245;28;20146;-82
2020/12/03 01:32:41;;;;;;;26.77;15.98;;;6.60;93.00;;;6.50;78.45;99750.91;4982381;28;20081;-81
2020/12/03 01:35:12;;;;;;;30.92;17.05;;;6.50;93.20;;;6.51;78.57;99744.50;4966854;28;20054;-82
2020/12/03 01:37:39;;;;;;;30.53;16.23;;;6.50;93.40;;;6.52;78.60;99743.47;4960739;28;20044;-82
2020/12/03 01:40:11;;;;;;;29.20;16.02;;;6.50;93.30;;;6.51;78.72;99741.81;4960136;28;20506;-82
2020/12/03 01:42:39;;;;;;;;;;;6.60;93.60;;;6.50;79.13;99737.41;4960615;28;20657;-82
2020/12/03 01:45:57;;;;;;;27.67;16.13;;;6.60;93.70;;;6.51;78.56;99736.41;4960230;28;19923;-82
2020/12/03 01:48:40;;;;;;;25.00;15.27;;;6.60;93.60;;;6.54;78.43;99732.47;4960130;28;20043;-82
2020/12/03 01:51:14;;;;;;;29.00;16.50;;;6.60;93.40;;;6.50;78.62;99733.88;4960629;28;20075;-82
2020/12/03 01:53:42;;;;;;;32.92;16.83;;;6.60;93.50;;;6.53;78.88;99730.78;4960242;28;20066;-82
2020/12/03 01:56:44;;;;;;;28.40;16.13;;;6.60;93.40;;;6.56;78.84;99723.16;4977019;28;20065;-82
2020/12/03 01:59:13;;;;;;;28.35;16.25;;;6.60;93.60;;;6.55;78.51;99726.91;4979422;28;20047;-82
2020/12/03 02:01:40;;;;;;;29.25;15.23;;;6.60;93.80;;;6.49;78.17;99722.19;4968302;28;20080;-82
2020/12/03 02:04:06;;;;;;;31.27;16.83;;;6.60;93.50;;;6.49;78.63;99722.19;4978242;28;20098;-82
2020/12/03 02:06:37;;;;;;;27.05;15.73;;;6.60;93.30;;;6.42;78.34;99715.84;4979269;28;20073;-82
2020/12/03 02:09:05;;;;;;;29.45;16.10;;;6.60;93.40;;;6.45;79.15;99702.81;4973059;28;20074;-82
2020/12/03 02:11:33;;;;;;;29.38;16.80;;;6.60;93.40;;;6.54;79.21;99695.47;4978557;28;20081;-82
2020/12/03 02:14:04;;;;;;;27.63;15.77;;;6.60;93.40;;;6.54;78.38;99691.94;4978686;28;20042;-82
2020/12/03 02:16:34;;;;;;;29.17;15.70;;;6.60;93.60;;;6.52;78.39;99688.56;4978424;28;20046;-82
2020/12/03 02:19:01;;;;;;;28.00;16.30;;;6.60;93.40;;;6.48;79.05;99688.09;4978083;28;20050;-82
2020/12/03 02:21:29;;;;;;;27.95;15.23;;;6.60;93.40;;;6.49;78.80;99673.53;4979120;28;20101;-82
2020/12/03 02:23:56;;;;;;;28.50;15.57;;;6.60;93.50;;;6.47;78.44;99678.28;4971220;28;20130;-82
2020/12/03 02:26:22;;;;;;;26.40;14.40;;;6.60;93.30;;;6.49;78.70;99673.53;4977716;28;20070;-82
2020/12/03 02:28:49;;;;;;;26.23;15.30;;;6.60;93.40;;;6.44;79.55;99665.13;4978585;28;20054;-82
2020/12/03 02:31:17;;;;;;;25.27;14.27;;;6.60;93.50;;;6.44;78.76;99665.13;4977491;28;20039;-82
2020/12/03 02:33:44;;;;;;;27.45;15.57;;;6.60;93.40;;;6.47;78.62;99659.34;4978002;28;20078;-82
2020/12/03 02:36:14;;;;;;;25.83;14.60;;;6.60;93.30;;;6.49;79.04;99651.06;4978371;28;20074;-82
2020/12/03 02:38:42;;;;;;;24.45;14.38;;;6.60;93.30;;;6.53;79.07;99658.66;4978672;28;20074;-82
2020/12/03 02:41:10;;;;;;;26.77;15.43;;;6.60;93.50;;;6.46;78.74;99646.88;4977399;28;20175;-82
2020/12/03 02:43:38;;;;;;;26.02;15.73;;;6.60;93.30;;;6.48;79.07;99644.00;4978322;28;20151;-82
2020/12/03 02:46:05;;;;;;;24.48;14.10;;;6.60;93.50;;;6.48;78.93;99638.59;4978203;28;20134;-82
2020/12/03 02:48:32;;;;;;;28.20;15.13;;;6.60;93.50;;;6.54;79.05;99635.16;4978056;28;20083;-82
2020/12/03 02:50:59;;;;;;;27.58;15.25;;;6.60;93.50;;;6.52;78.95;99629.94;4978091;28;20862;-82
2020/12/03 02:53:26;;;;;;;26.13;14.45;;;6.60;93.60;;;6.53;78.50;99633.47;4977311;28;20085;-83
2020/12/03 02:55:53;;;;;;;27.67;14.73;;;6.60;93.50;;;6.56;78.81;99625.84;4978707;28;20051;-81
2020/12/03 02:58:20;;;;;;;26.60;15.20;;;6.60;93.70;;;6.55;79.13;99617.91;4977521;28;20083;-82
2020/12/03 03:00:47;;;;;;;26.73;14.55;;;6.60;93.80;;;6.50;79.32;99618.47;4978941;28;20051;-82
2020/12/03 03:03:13;;;;;;;25.08;14.25;;;6.60;93.90;;;6.52;79.59;99613.72;4977012;28;20089;-82
2020/12/03 03:05:40;;;;;;;27.17;14.93;;;6.60;93.90;;;6.48;79.17;99607.00;4978044;28;20047;-82
2020/12/03 03:08:07;;;;;;;23.60;13.90;;;6.60;93.70;;;6.49;79.38;99607.81;4977795;28;20053;-82
2020/12/03 03:10:33;;;;;;;25.88;14.98;;;6.60;93.80;;;6.52;79.02;99602.06;4977973;28;20541;-83
2020/12/03 03:13:01;;;;;;;25.25;14.88;;;6.60;93.80;;;6.49;79.76;99603.25;4978627;28;20567;-82
2020/12/03 03:15:28;;;;;;;26.05;14.05;;;6.70;94.00;;;6.49;79.79;99597.84;4976710;28;20122;-83
2020/12/03 03:17:54;;;;;;;23.50;14.27;;;6.70;94.10;;;6.46;79.01;99592.81;4977289;28;20592;-82
2020/12/03 03:20:21;;;;;;;24.27;14.35;;;6.70;94.00;;;6.51;79.27;99595.84;4977733;28;20062;-82
2020/12/03 03:22:48;;;;;;;26.17;14.52;;;6.70;93.90;;;6.55;79.24;99585.47;4977539;28;20046;-82
2020/12/03 03:25:16;;;;;;;25.42;14.80;;;6.70;94.10;;;6.51;79.26;99590.44;4977109;28;20078;-82
2020/12/03 03:27:42;;;;;;;25.25;14.52;;;6.70;94.00;;;6.47;79.39;99583.69;4977323;28;20130;-82
2020/12/03 03:30:10;;;;;;;26.90;15.15;;;6.60;93.70;;;6.46;79.33;99576.59;4976948;28;20086;-82
2020/12/03 03:32:37;;;;;;;27.83;14.38;;;6.70;93.90;;;6.46;79.63;99572.03;4974667;28;20039;-82
2020/12/03 03:35:06;;;;;;;24.60;13.85;;;6.60;94.00;;;6.45;79.67;99574.91;4957890;28;20103;-82
2020/12/03 03:37:33;;;;;;;24.55;14.63;;;6.60;93.90;;;6.48;79.63;99568.31;4957767;28;20073;-82
2020/12/03 03:40:01;;;;;;;23.58;14.40;;;6.60;94.00;;;6.50;79.01;99567.09;4958034;28;20396;-82
2020/12/03 03:42:28;;;;;;;22.83;13.63;;;6.60;94.00;;;6.48;79.21;99569.16;4958347;28;20142;-82
2020/12/03 03:44:55;;;;;;;25.00;14.63;;;6.70;94.10;;;6.54;79.43;99568.41;4957911;28;20098;-82
2020/12/03 03:47:23;;;;;;;23.98;13.73;;;6.60;94.00;;;6.52;79.37;99566.94;4958574;28;20106;-82
2020/12/03 03:49:49;;;;;;;26.50;14.57;;;6.60;93.80;;;6.54;79.48;99562.19;4957962;28;20054;-82
2020/12/03 03:52:16;;;;;;;22.10;13.80;;;6.70;94.20;;;6.52;80.10;99565.06;4958142;28;20051;-82
2020/12/03 03:54:43;;;;;;;23.08;13.82;;;6.70;94.20;;;6.52;79.81;99556.97;4958102;28;20138;-82
2020/12/03 03:57:10;;;;;;;23.33;14.48;;;6.70;94.30;;;6.51;80.08;99555.28;4957355;28;20058;-82
2020/12/03 03:59:36;;;;;;;24.83;14.45;;;6.60;94.20;;;6.52;79.98;99558.81;4956461;29;20074;-82
2020/12/03 04:02:03;;;;;;;23.15;13.65;;;6.70;94.60;;;6.47;80.16;99545.84;4957216;28;20085;-82
2020/12/03 04:04:31;;;;;;;23.40;13.70;;;6.60;94.40;;;6.50;80.35;99539.25;4957655;28;20067;-82
2020/12/03 04:06:58;;;;;;;26.48;14.32;;;6.70;94.50;;;6.48;79.87;99531.31;4957100;28;20051;-82
2020/12/03 04:09:24;;;;;;;23.60;13.43;;;6.70;94.40;;;6.49;80.09;99532.97;4966103;28;20072;-82
2020/12/03 04:11:51;;;;;;;23.58;13.38;;;6.60;94.40;;;6.48;79.94;99515.09;4976577;28;20584;-81
2020/12/03 04:14:18;;;;;;;22.67;12.80;;;6.60;94.30;;;6.56;79.82;99509.59;4976882;28;20179;-81
2020/12/03 04:16:45;;;;;;;24.30;13.65;;;6.70;94.50;;;6.55;79.37;99502.53;4975092;28;20146;-82
2020/12/03 04:19:11;;;;;;;21.40;12.48;;;6.60;94.30;;;6.54;79.77;99508.97;4975976;28;20110;-82
2020/12/03 04:21:39;;;;;;;21.90;12.82;;;6.70;94.50;;;6.53;80.09;99506.44;4974504;28;20078;-82
2020/12/03 04:24:06;;;;;;;20.20;12.25;;;6.70;94.50;;;6.55;80.01;99509.78;4974574;28;20066;-82
2020/12/03 04:26:32;;;;;;;25.02;13.82;;;6.70;94.50;;;6.52;80.33;99511.00;4977075;28;20051;-82
2020/12/03 04:28:59;;;;;;;20.48;12.57;;;6.70;94.70;;;6.51;80.44;99503.94;4976730;28;20487;-82
2020/12/03 04:31:26;;;;;;;23.13;12.98;;;6.60;94.60;;;6.50;79.78;99499.53;4976930;28;20078;-82
2020/12/03 04:33:53;;;;;;;20.83;11.82;;;6.70;94.60;;;6.52;80.61;99504.75;4963225;28;20402;-82
2020/12/03 04:36:19;;;;;;;22.55;12.20;;;6.60;94.80;;;6.52;80.11;99502.91;4957198;28;20137;-82
2020/12/03 04:38:47;;;;;;;20.52;11.95;;;6.70;94.80;;;6.53;79.52;99491.06;4957405;28;20063;-82
2020/12/03 04:41:16;;;;;;;22.00;12.43;;;6.70;94.70;;;6.52;79.67;99488.53;4957637;28;20050;-82
2020/12/03 04:43:47;;;;;;;18.13;11.13;;;6.70;94.70;;;6.56;80.18;99479.88;4956636;28;20059;-82
2020/12/03 04:46:29;;;;;;;21.92;11.88;;;6.70;94.60;;;6.58;79.97;99477.81;4957070;28;20075;-82
2020/12/03 04:49:34;;;;;;;22.33;12.23;;;6.60;94.70;;;6.56;79.64;99479.88;4971543;28;20079;-82
2020/12/03 04:52:32;;;;;;;20.30;11.60;;;6.70;94.80;;;6.51;79.68;99476.91;4901276;29;20064;-82
2020/12/03 04:55:16;;;;;;;18.10;11.25;;;6.70;94.80;;;6.51;80.40;99471.50;4958966;29;20551;-82
2020/12/03 04:57:50;;;;;;;20.02;11.75;;;6.70;94.60;;;6.54;80.20;99472.97;4960196;28;20550;-82
2020/12/03 05:00:35;;;;;;;21.33;11.70;;;6.70;94.70;;;6.55;79.84;99472.81;4960968;28;20043;-82
2020/12/03 05:03:59;;;;;;;26.65;12.15;;;6.70;94.70;;;6.56;79.93;99462.81;4960520;28;20059;-82
2020/12/03 05:06:54;;;;;;;20.30;11.52;;;6.70;94.60;;;6.50;80.12;99461.69;4960559;28;20043;-82
2020/12/03 05:09:28;;;;;;;20.98;11.60;;;6.70;94.70;;;6.51;80.05;99457.97;4969569;28;20050;-82
2020/12/03 05:12:00;;;;;;;20.30;11.55;;;6.70;94.60;;;6.55;79.74;99459.28;4980691;28;20051;-83
2020/12/03 05:14:50;;;;;;;21.15;11.90;;;6.70;94.40;;;6.48;80.00;99455.63;4979742;28;20042;-82
2020/12/03 05:17:32;;;;;;;21.13;10.93;;;6.70;94.40;;;6.51;79.68;99455.28;4979753;28;20047;-82
2020/12/03 05:20:37;;;;;;;21.90;12.10;;;6.70;94.30;;;6.46;80.40;99452.28;4979731;28;20381;-82
2020/12/03 05:23:14;;;;;;;19.65;11.35;;;6.70;94.50;;;6.48;80.32;99450.22;4978897;28;20054;-82
2020/12/03 05:25:42;;;;;;;21.42;9.95;;;6.60;94.50;;;6.44;80.16;99438.13;4979681;28;20048;-81
2020/12/03 05:28:41;;;;;;;19.95;10.55;;;6.60;94.40;;;6.46;79.85;99436.91;4980885;28;20042;-82
2020/12/03 05:31:18;;;;;;;20.10;11.40;;;6.70;94.50;;;6.48;79.85;99423.22;4979997;28;20137;-81
2020/12/03 05:33:45;;;;;;;20.40;11.23;;;6.60;94.40;;;6.50;79.84;99423.84;4967405;28;20067;-81
2020/12/03 05:36:32;;;;;;;19.23;10.73;;;6.60;94.40;;;6.46;80.02;99417.16;4957045;28;20117;-82
2020/12/03 05:39:01;;;;;;;19.45;10.77;;;6.60;94.50;;;6.45;79.79;99407.34;4957274;28;20081;-82
2020/12/03 05:41:35;;;;;;;18.92;10.85;;;6.70;94.70;;;6.51;79.85;99411.16;4957672;28;20047;-82
2020/12/03 05:44:22;;;;;;;18.02;10.25;;;6.60;94.80;;;6.53;80.21;99409.97;4958034;28;20059;-82
2020/12/03 05:46:51;;;;;;;19.13;10.60;;;6.70;95.00;;;6.54;80.15;99417.06;4969921;28;20051;-82
2020/12/03 05:49:21;;;;;;;18.20;10.13;;;6.60;95.10;;;6.50;80.25;99404.94;4977191;28;20045;-82
2020/12/03 05:52:13;;;;;;;19.75;10.43;;;6.60;94.90;;;6.52;80.21;99397.47;4977546;28;20043;-82
2020/12/03 05:54:40;;;;;;;;;;;6.60;94.90;;;6.55;80.36;99397.13;4977247;28;20050;-82
2020/12/03 05:57:22;;;;;;;20.45;10.77;;;6.70;94.80;;;6.53;80.17;99388.34;4976358;28;19925;-81
2020/12/03 05:59:51;;;;;;;19.83;10.45;;;6.70;95.00;;;6.55;79.80;99390.84;4977481;28;20058;-82
2020/12/03 06:02:36;;;;;;;21.90;10.65;;;6.70;94.80;;;6.53;79.91;99388.34;4976187;28;20047;-82
2020/12/03 06:05:17;;;;;;;18.88;9.75;;;6.60;94.80;;;6.56;79.72;99369.03;4977601;28;20043;-82
2020/12/03 06:07:57;;;;;;;;;;;6.70;94.60;;;6.55;80.16;99361.13;4977271;28;20038;-82
2020/12/03 06:10:41;;;;;;;17.48;9.13;;;6.70;94.60;;;6.56;79.63;99363.63;4978016;28;19977;-81
2020/12/03 06:13:27;;;;;;;18.10;10.10;;;6.70;94.60;;;6.53;79.34;99361.34;4966692;28;20053;-81
2020/12/03 06:16:01;;;;;;;17.20;10.10;;;6.60;94.10;;;6.54;80.07;99354.88;4975812;28;20051;-81
2020/12/03 06:19:05;;;;;;;20.88;9.57;;;6.60;94.20;;;6.51;80.15;99352.56;4976617;28;20113;-82
2020/12/03 06:22:02;;;;;;;18.92;9.95;;;6.60;94.30;;;6.52;79.22;99348.81;4970944;28;20125;-82
2020/12/03 06:25:06;;;;;;;17.58;9.10;;;6.70;94.10;;;6.54;79.58;99338.66;4969916;28;20101;-82
2020/12/03 06:28:03;;;;;;;17.08;9.90;;;6.70;94.00;;;6.55;79.31;99334.94;4975957;28;20434;-82
2020/12/03 06:30:37;;;;;;;22.10;9.70;;;6.70;94.10;;;6.57;79.51;99327.50;4972449;28;20105;-81
2020/12/03 06:33:38;;;;;;;16.77;8.95;;;6.60;94.00;;;6.59;79.38;99327.31;4958028;28;20114;-81
2020/12/03 06:36:24;;;;;;;16.67;8.93;;;6.70;93.80;;;6.55;79.09;99318.72;4973886;28;20058;-80
2020/12/03 06:39:17;;;;;;;19.75;9.75;;;6.70;94.00;;;6.58;78.75;99320.22;4973703;28;20051;-81
2020/12/03 06:41:52;;;;;;;15.63;9.10;;;6.70;93.90;;;6.52;78.66;99310.16;4974270;28;20047;-81
2020/12/03 06:44:25;;;;;;;16.13;8.77;;;6.70;93.70;;;6.57;79.01;99303.16;4973606;28;20069;-81
2020/12/03 06:47:38;;;;;;;18.52;9.13;;;6.70;93.70;;;6.57;78.80;99289.66;4974157;28;20125;-80
2020/12/03 06:50:55;;;;;;;17.33;9.68;;;6.70;93.80;;;6.61;78.49;99288.22;4973541;28;20073;-80
2020/12/03 06:53:58;;;;;;;15.25;9.10;;;6.70;93.50;;;6.65;78.86;99288.69;4963084;28;20070;-81
2020/12/03 06:57:32;;;;;;;20.20;10.23;;;6.70;93.60;;;6.52;78.91;99292.06;4973660;28;20097;-80
2020/12/03 07:00:39;;;;;;;20.30;10.30;;;6.70;93.20;;;6.56;78.63;99290.66;4956434;28;20058;-80
2020/12/03 07:04:00;;;;;;;20.88;11.05;;;6.70;93.30;;;6.48;79.11;99289.94;4973721;28;20055;-81
2020/12/03 07:07:25;;;;;;;23.58;11.57;;;6.60;93.10;;;6.46;78.91;99295.53;4955661;28;20055;-80
2020/12/03 07:10:23;;;;;;;17.67;9.77;;;6.60;92.90;;;6.49;79.28;99297.00;4922180;28;20063;-80
2020/12/03 07:13:26;;;;;;;18.33;9.52;;;6.60;93.30;;;6.52;78.86;99300.19;4958785;28;20047;-80
2020/12/03 07:16:23;;;;;;;17.33;9.77;;;6.60;93.40;;;6.51;78.86;99297.66;4973985;28;20050;-80
2020/12/03 07:19:49;;;;;;;15.95;9.32;;;6.70;93.30;;;6.49;78.34;99300.53;4969574;28;20078;-80
2020/12/03 07:22:20;;;;;;;15.80;9.18;;;6.60;93.00;;;6.52;78.88;99294.78;4973736;28;20047;-80
2020/12/03 07:24:49;;;;;;;19.23;9.68;;;6.60;93.00;;;6.43;78.35;99301.31;4973010;28;20051;-79
2020/12/03 07:28:02;;;;;;;18.02;9.10;;;6.60;92.70;;;6.45;78.41;99301.94;4973200;28;20043;-79
2020/12/03 07:30:49;;;;;;;20.40;9.15;;;6.70;92.70;;;6.52;78.43;99293.94;4953679;29;20113;-79
2020/12/03 07:33:32;;;;;;;16.85;9.18;;;6.60;93.00;;;6.53;78.30;99285.66;4952328;29;20098;-79
2020/12/03 07:36:27;;;;;;;16.98;9.55;;;6.60;93.00;;;6.55;78.26;99288.13;4953914;28;20849;-79
2020/12/03 07:39:01;;;;;;;15.32;9.02;;;6.60;93.30;;;6.56;78.29;99290.66;4954080;28;20102;-79
2020/12/03 07:41:34;;;;;;;17.58;8.77;;;6.60;93.50;;;6.57;78.11;99284.25;4953879;28;20043;-80
2020/12/03 07:44:20;;;;;;;15.95;9.20;;;6.60;93.10;;;6.55;78.43;99278.19;4953573;28;20106;-80
2020/12/03 07:46:50;;;;;;;16.92;9.57;;;6.60;93.00;;;6.54;77.97;99265.69;4953956;28;20061;-78
2020/12/03 07:49:42;;;;;;;16.70;9.10;;;6.60;92.80;;;6.51;77.66;99263.38;4953889;28;20047;-79
2020/12/03 07:52:23;;;;;;;15.57;8.85;;;6.60;92.70;;;6.53;78.34;99258.63;4952450;29;20051;-79
2020/12/03 07:54:51;;;;;;;17.93;9.27;;;6.60;92.70;;;6.54;77.99;99270.25;4953943;28;20047;-79
2020/12/03 07:57:50;;;;;;;15.55;9.07;;;6.60;92.70;;;6.52;78.21;99266.91;4954233;28;20659;-78
2020/12/03 08:00:47;;;;;;;19.50;9.60;;;6.60;92.70;;;6.52;78.36;99259.63;4953927;28;20040;-78
2020/12/03 08:03:38;;;;;;;15.02;9.25;;;6.60;92.80;;;6.53;78.37;99257.75;4955552;28;20438;-79
2020/12/03 08:06:25;;;;;;;16.25;8.98;;;6.60;93.10;;;6.49;78.35;99246.50;4971196;28;20083;-78
2020/12/03 08:09:25;;;;;;;17.08;8.77;;;6.60;92.70;;;6.44;77.92;99240.84;4972661;28;20062;-79
2020/12/03 08:12:11;;;;;;;15.30;8.65;;;6.60;92.40;;;6.48;78.23;99242.13;4972278;28;20101;-77
2020/12/03 08:14:48;;;;;;;16.33;9.35;;;6.60;92.70;;;6.47;78.08;99237.72;4971794;28;20503;-77
2020/12/03 08:17:44;;;;;;;15.55;8.73;;;6.70;92.70;;;6.46;78.27;99239.59;4954659;28;20114;-78
2020/12/03 08:20:42;;;;;;;16.02;8.75;;;6.70;92.60;;;6.43;78.42;99231.88;4953033;28;20050;-80
2020/12/03 08:23:13;;;;;;;20.60;9.77;;;6.60;92.40;;;6.45;78.24;99231.69;4957210;28;20043;-80
2020/12/03 08:25:47;;;;;;;18.02;8.95;;;6.70;92.50;;;6.46;78.24;99222.56;4975130;28;20047;-79
2020/12/03 08:28:24;;;;;;;19.98;9.88;;;6.70;92.40;;;6.46;78.06;99222.56;4973014;28;20126;-79
2020/12/03 08:30:53;;;;;;;18.25;8.35;;;6.70;92.40;;;6.47;78.05;99221.50;4957429;29;20125;-79
2020/12/03 08:33:31;;;;;;;17.67;9.57;;;6.70;92.20;;;6.39;77.69;99221.63;4956361;29;20082;-79
2020/12/03 08:36:01;;;;;;;16.60;8.98;;;6.70;92.00;;;6.44;77.67;99227.31;4956578;28;20050;-80
2020/12/03 08:38:31;;;;;;;17.33;9.25;;;6.60;91.90;;;6.48;78.36;99217.81;4970816;28;20047;-80
2020/12/03 08:41:03;;;;;;;15.75;8.75;;;6.70;92.40;;;6.47;78.27;99210.72;4956388;28;20051;-80
2020/12/03 08:43:32;;;;;;;17.77;8.93;;;6.60;92.30;;;6.47;78.08;99202.59;4957098;28;20043;-81
2020/12/03 08:46:05;;;;;;;17.27;8.82;;;6.60;92.50;;;6.42;78.48;99202.34;4957653;28;20047;-79
2020/12/03 08:48:37;;;;;;;16.08;8.68;;;6.60;92.20;;;6.44;78.75;99194.88;4957440;28;20058;-79
2020/12/03 08:51:08;;;;;;;18.60;8.82;;;6.60;92.60;;;6.47;77.88;99199.91;4956744;28;20049;-78
2020/12/03 08:53:36;;;;;;;15.68;8.90;;;6.60;92.30;;;6.50;77.95;99194.13;4956115;28;20125;-79
2020/12/03 08:56:26;;;;;;;16.02;8.30;;;6.60;92.20;;;6.55;77.89;99189.00;4956358;28;20059;-79
2020/12/03 08:59:05;;;;;;;14.98;8.60;;;6.60;92.30;;;6.52;77.94;99189.34;4970885;28;20493;-79
2020/12/03 09:01:36;;;;;;;17.95;9.25;;;6.60;92.70;;;6.51;77.75;99190.41;4956685;28;20054;-78
2020/12/03 09:04:05;;;;;;;16.92;8.55;;;6.60;92.60;;;6.54;77.62;99189.19;4955891;28;20051;-79
2020/12/03 09:06:35;;;;;;;18.77;8.73;;;6.60;92.40;;;6.55;78.59;99183.59;4973619;28;20074;-79
2020/12/03 09:09:03;;;;;;;17.13;8.73;;;6.60;92.70;;;6.50;77.76;99175.22;4975306;28;20043;-79
2020/12/03 09:11:35;;;;;;;17.70;9.27;;;6.70;92.80;;;6.52;78.49;99167.75;4974780;28;20054;-79
2020/12/03 09:14:03;;;;;;;17.98;9.60;;;6.60;93.10;;;6.47;78.05;99172.88;4975042;28;20046;-80
2020/12/03 09:16:35;;;;;;;15.57;8.77;;;6.60;92.70;;;6.51;78.44;99166.09;4975423;28;20058;-78
2020/12/03 09:19:02;;;;;;;14.55;8.73;;;6.60;92.70;;;6.54;78.23;99162.16;4976157;28;20047;-80
2020/12/03 09:21:31;;;;;;;17.67;9.13;;;6.60;92.70;;;6.53;77.84;99144.25;4975875;28;20160;-80
2020/12/03 09:23:59;;;;;;;16.15;9.05;;;6.60;92.60;;;6.53;78.49;99142.41;4973945;28;20122;-79
2020/12/03 09:26:29;;;;;;;15.45;8.60;;;6.60;92.60;;;6.53;77.63;99144.25;4977974;28;20050;-79
2020/12/03 09:28:59;;;;;;;13.90;8.43;;;6.70;92.50;;;6.53;77.98;99139.69;4976888;28;20098;-79
2020/12/03 09:31:26;;;;;;;15.18;8.98;;;6.70;92.40;;;6.54;78.10;99135.13;4971836;28;20047;-79
2020/12/03 09:33:55;;;;;;;14.65;8.70;;;6.70;92.40;;;6.50;77.80;99129.25;4973038;28;20065;-77
2020/12/03 09:36:22;;;;;;;15.10;8.90;;;6.70;92.40;;;6.51;78.34;99130.09;4973374;28;20109;-78
2020/12/03 09:38:51;;;;;;;17.90;9.48;;;6.70;92.20;;;6.52;77.81;99120.97;4974457;28;20101;-77
2020/12/03 09:41:22;;;;;;;18.45;8.93;;;6.70;92.30;;;6.54;77.80;99118.91;4966842;28;20067;-77
2020/12/03 09:43:52;;;;;;;17.45;9.25;;;6.70;92.40;;;6.53;77.76;99107.25;4962739;28;20058;-78
2020/12/03 09:46:23;;;;;;;15.55;9.00;;;6.70;92.30;;;6.56;78.74;99106.84;4964381;28;20865;-78
2020/12/03 09:48:52;;;;;;;14.00;8.30;;;6.70;92.60;;;6.55;77.97;99099.78;4962510;28;20046;-78
2020/12/03 09:51:21;;;;;;;15.05;8.60;;;6.70;92.00;;;6.56;78.07;99095.22;4965664;28;20109;-78
2020/12/03 09:53:50;;;;;;;15.13;8.25;;;6.70;92.20;;;6.58;78.32;99079.63;4965341;28;20050;-78
2020/12/03 09:56:17;;;;;;;14.75;8.63;;;6.70;92.50;;;6.56;78.44;99070.88;4966895;28;20055;-77
2020/12/03 09:58:44;;;;;;;16.15;8.80;;;6.70;92.60;;;6.53;77.75;99069.44;4958225;28;20047;-78
2020/12/03 10:01:13;;;;;;;14.85;8.38;;;6.80;92.20;;;6.51;77.74;99067.94;4963417;28;20050;-78
2020/12/03 10:04:30;;;;;;;13.68;8.05;;;6.80;91.70;;;6.54;78.40;99068.38;4965780;28;20066;-77
2020/12/03 10:07:06;;;;;;;15.70;8.75;;;6.80;92.00;;;6.53;78.26;99066.72;4959190;28;20043;-77
2020/12/03 10:10:11;;;;;;;14.75;8.00;;;6.80;91.90;;;6.53;78.01;99058.63;4961531;28;20039;-78
2020/12/03 10:13:12;;;;;;;13.73;8.35;;;6.80;91.90;;;6.59;78.24;99060.53;4963945;28;20675;-77
2020/12/03 10:16:03;;;;;;;14.80;8.75;;;6.80;91.90;;;6.61;77.37;99055.75;4964600;28;20549;-78
2020/12/03 10:18:45;;;;;;;15.98;9.00;;;6.80;91.80;;;6.64;78.42;99049.97;4960883;28;20049;-78
2020/12/03 10:21:16;;;;;;;14.88;8.45;;;6.90;92.00;;;6.67;78.47;99043.34;4964248;28;20121;-77
2020/12/03 10:23:50;;;;;;;23.65;9.25;;;6.90;92.20;;;6.69;78.30;99035.03;4961043;28;20049;-78
2020/12/03 10:26:37;;;;;;;15.55;8.45;;;6.90;92.10;;;6.73;77.73;99034.44;4962017;28;20522;-78
2020/12/03 10:29:37;;;;;;;16.83;9.30;;;6.90;92.30;;;6.74;78.72;99032.56;4961227;28;20438;-78
2020/12/03 10:32:10;;;;;;;13.68;8.23;;;7.00;92.20;;;6.68;78.44;99028.78;4957292;28;20055;-78
2020/12/03 10:34:41;;;;;;;14.45;8.88;;;7.00;92.20;;;6.64;77.48;99035.59;4970231;28;20093;-79
2020/12/03 10:37:22;;;;;;;15.25;9.15;;;7.00;91.60;;;6.65;78.20;99029.19;4974763;28;20094;-79
2020/12/03 10:39:53;;;;;;;14.57;8.43;;;7.00;91.80;;;6.65;77.64;99012.97;4973488;28;20046;-79
2020/12/03 10:42:27;;;;;;;16.33;7.70;;;7.00;91.20;;;6.61;77.53;99006.28;4974643;28;20047;-79
2020/12/03 10:45:06;;;;;;;15.63;8.85;;;7.00;90.90;;;6.67;77.78;99002.78;4972846;28;20451;-79
2020/12/03 10:47:44;;;;;;;14.50;8.73;;;7.00;91.10;;;6.70;77.83;98993.44;4974046;28;20043;-78
2020/12/03 10:50:16;;;;;;;15.27;8.30;;;7.10;91.20;;;6.73;78.31;98985.78;4974359;28;20042;-79
2020/12/03 10:52:45;;;;;;;17.52;8.50;;;7.10;91.40;;;6.69;77.38;98973.69;4974807;28;20062;-79
2020/12/03 10:55:17;;;;;;;13.70;7.93;;;7.10;91.20;;;6.75;77.77;98972.88;4974148;28;20047;-79
2020/12/03 10:57:59;;;;;;;12.02;7.00;;;7.10;91.00;;;6.67;78.10;98961.41;4974216;28;20047;-79
2020/12/03 11:00:29;;;;;;;13.73;7.70;;;7.20;90.70;;;6.76;78.01;98954.78;4973844;28;20118;-78
2020/12/03 11:03:02;;;;;;;13.32;7.13;;;7.20;90.80;;;6.74;77.74;98951.44;4974238;28;20434;-80